Wilmington, OH

12:53 PM EST on March 01, 2015 (GMT -0500)
Springfield-Beckley Municipal | Change Station
CLOSE
Current Station
Airport
Location: Springfield,
Elevation: 1050 ft
Nearby Weather Stations

Elev 1050 ft 39.84 °N, 83.84 °W | Updated 7 minutes ago

Snow
Snow
32 °F
Feels Like 28 °F
N
5
Wind Variable Wind from NW

Today
High -- | Low -- °F
--% Chance of Precip.
Yesterday
High -- | Low -- °F
Precip. -- in
7:08 AM 6:27 PM
Waxing Gibbous, 86% visible
Pressure 30.31 in
Visibility 1.8 miles
Clouds Overcast 700 ft
Windchill 28 °F
Dew Point 30 °F
Humidity 93%
Rainfall 0.24 in
Snow Depth Not available.
UV 2 out of 12
Pollen .70 out of 12
Air Quality Not available.
Flu Activity Not available.
SPECI KSGH 011746Z AUTO 31004KT 1 3/4SM BR OVC007 00/M01 A3031 RMK AO2 OVC V BKN UPE29 P0000

More Conditions Fewer Conditions

Pressure 30.31 in
Visibility 1.8 miles
Clouds Overcast 700 ft
Windchill 28 °F
Dew Point 30 °F
Humidity 93%
Rainfall 0.24 in
Snow Depth Not available.
UV 2 out of 12
Pollen .70 out of 12
Air Quality Not available.
Flu Activity Not available.
SPECI KSGH 011746Z AUTO 31004KT 1 3/4SM BR OVC007 00/M01 A3031 RMK AO2 OVC V BKN UPE29 P0000

More Conditions Fewer Conditions

10-Day Weather Forecast

Almanac

Astronomy

Mar. 01, 2015 Rise Set
Actual Time
Civil Twilight
Nautical Twilight
Astronomical Twilight
Moon
Length of Visible Light
Length of Day
Tomorrow will be .
, % of the Moon is Illuminated

Today's Extremes

State Highs State Lows

Community

WunderPhotos

Upload Photos

1,801,483 photos uploaded!

WunderBlogs® & News

Nearby

Air Quality

  Air Quality AQ Index Pollutant
Not available.

Snow Depth

Station Depth Elevation

Earthquake Activity

City Distance Mag. Time & Date
Minimum magnitude displayed is 2.5.

Coastal Water Temperatures

Place Temperature

Nearby Weather Stations

Winter Weather Advisory
Statement as of 9:54 AM EST on March 01, 2015

... Winter Weather Advisory remains in effect until 3 PM EST this
afternoon...

* hazard types... snow... sleet... and freezing rain.

* Accumulations... snow accumulation of 2 to 4 inches is
expected... along with a glaze of ice.

* Timing... snow will mix with some sleet and freezing rain this
morning as the precipitation becomes more sporadic. Any lingering
showers will change to rain this afternoon.

* Impacts... travel difficulties are expected due to snow and ice
accumulations.

Precautionary/preparedness actions...

Remember... a Winter Weather Advisory means that periods of snow...
sleet... or freezing rain will cause travel difficulties. Be
prepared for slippery roads and limited visibilities... and use
caution while driving. Stay tuned to NOAA Weather Radio or your
favorite source of information for the latest updates. Additional
details can also be found at www.Weather.Gov/iln... as well as on
our facebook and twitter pages.